<?xml version="1.0" encoding="UTF-8" standalone="no" ?>
<gpx xmlns="http://www.topografix.com/GPX/1/1" xmlns:xsi="http://www.w3.org/2001/XMLSchema-instance" xsi:schemaLocation="http://www.topografix.com/GPX/1/1 http://www.topografix.com/GPX/1/1/gpx.xsd" version="1.1" creator="VisuGPX - https://www.visugpx.com">
  <metadata>
    <name>St Loup 3</name>
    <desc><![CDATA[3eme randonnée]]></desc>
  </metadata>
  <trk>
    <name><![CDATA[St Loup 3_1]]></name>
    <trkseg>
      <trkpt lat="45.88513" lon="4.48089">
        <ele>438.2</ele>
        <time>2013-09-19T18:34:17Z</time>
      </trkpt>
      <trkpt lat="45.88513" lon="4.48093">
        <ele>438.2</ele>
        <time>2013-09-19T18:34:52Z</time>
      </trkpt>
      <trkpt lat="45.88513" lon="4.48099">
        <ele>438.2</ele>
        <time>2013-09-19T18:34:57Z</time>
      </trkpt>
      <trkpt lat="45.88516" lon="4.48108">
        <ele>445.72967726898</ele>
        <time>2013-09-19T18:35:02Z</time>
      </trkpt>
      <trkpt lat="45.88518" lon="4.48119">
        <ele>445.72967726898</ele>
        <time>2013-09-19T18:35:07Z</time>
      </trkpt>
      <trkpt lat="45.88515" lon="4.48128">
        <ele>448.25583813677</ele>
        <time>2013-09-19T18:35:12Z</time>
      </trkpt>
      <trkpt lat="45.88509" lon="4.48134">
        <ele>448.25583813677</ele>
        <time>2013-09-19T18:35:17Z</time>
      </trkpt>
      <trkpt lat="45.88502" lon="4.4814">
        <ele>450.41159671355</ele>
        <time>2013-09-19T18:35:22Z</time>
      </trkpt>
      <trkpt lat="45.88497" lon="4.48145">
        <ele>450.41159671355</ele>
        <time>2013-09-19T18:35:27Z</time>
      </trkpt>
      <trkpt lat="45.8849" lon="4.48149">
        <ele>452.42311788636</ele>
        <time>2013-09-19T18:35:32Z</time>
      </trkpt>
      <trkpt lat="45.88482" lon="4.48152">
        <ele>452.42311788636</ele>
        <time>2013-09-19T18:35:37Z</time>
      </trkpt>
      <trkpt lat="45.88474" lon="4.48156">
        <ele>454.36783269335</ele>
        <time>2013-09-19T18:35:42Z</time>
      </trkpt>
      <trkpt lat="45.88466" lon="4.48162">
        <ele>454.36783269335</ele>
        <time>2013-09-19T18:35:47Z</time>
      </trkpt>
      <trkpt lat="45.8846" lon="4.48167">
        <ele>456.11891063603</ele>
        <time>2013-09-19T18:35:52Z</time>
      </trkpt>
      <trkpt lat="45.88452" lon="4.48168">
        <ele>456.11891063603</ele>
        <time>2013-09-19T18:35:57Z</time>
      </trkpt>
      <trkpt lat="45.88444" lon="4.4817">
        <ele>457.73707523612</ele>
        <time>2013-09-19T18:36:02Z</time>
      </trkpt>
      <trkpt lat="45.88434" lon="4.48176">
        <ele>459.00658492977</ele>
        <time>2013-09-19T18:36:07Z</time>
      </trkpt>
      <trkpt lat="45.88424" lon="4.48183">
        <ele>459.81833493753</ele>
        <time>2013-09-19T18:36:12Z</time>
      </trkpt>
      <trkpt lat="45.88418" lon="4.4819">
        <ele>459.81833493753</ele>
        <time>2013-09-19T18:36:17Z</time>
      </trkpt>
      <trkpt lat="45.88415" lon="4.48201">
        <ele>460.27708887811</ele>
        <time>2013-09-19T18:36:22Z</time>
      </trkpt>
      <trkpt lat="45.88413" lon="4.48213">
        <ele>460.27708887811</ele>
        <time>2013-09-19T18:36:27Z</time>
      </trkpt>
      <trkpt lat="45.88412" lon="4.48222">
        <ele>460.39882020854</ele>
        <time>2013-09-19T18:36:32Z</time>
      </trkpt>
      <trkpt lat="45.88413" lon="4.48231">
        <ele>460.39882020854</ele>
        <time>2013-09-19T18:36:37Z</time>
      </trkpt>
      <trkpt lat="45.88414" lon="4.4824">
        <ele>460.26952115567</ele>
        <time>2013-09-19T18:36:42Z</time>
      </trkpt>
      <trkpt lat="45.88414" lon="4.48249">
        <ele>460.26952115567</ele>
        <time>2013-09-19T18:36:47Z</time>
      </trkpt>
      <trkpt lat="45.88418" lon="4.48263">
        <ele>459.91635910497</ele>
        <time>2013-09-19T18:36:52Z</time>
      </trkpt>
      <trkpt lat="45.88422" lon="4.48274">
        <ele>459.91635910497</ele>
        <time>2013-09-19T18:36:57Z</time>
      </trkpt>
      <trkpt lat="45.88426" lon="4.48284">
        <ele>459.43898933323</ele>
        <time>2013-09-19T18:37:02Z</time>
      </trkpt>
      <trkpt lat="45.88428" lon="4.48294">
        <ele>459.43898933323</ele>
        <time>2013-09-19T18:37:07Z</time>
      </trkpt>
      <trkpt lat="45.88432" lon="4.48305">
        <ele>458.89688180203</ele>
        <time>2013-09-19T18:37:12Z</time>
      </trkpt>
      <trkpt lat="45.88436" lon="4.48314">
        <ele>458.89688180203</ele>
        <time>2013-09-19T18:37:17Z</time>
      </trkpt>
      <trkpt lat="45.8844" lon="4.48323">
        <ele>458.27572888836</ele>
        <time>2013-09-19T18:37:22Z</time>
      </trkpt>
      <trkpt lat="45.88448" lon="4.48331">
        <ele>457.59230635549</ele>
        <time>2013-09-19T18:37:27Z</time>
      </trkpt>
      <trkpt lat="45.88455" lon="4.48339">
        <ele>456.87407513032</ele>
        <time>2013-09-19T18:37:32Z</time>
      </trkpt>
      <trkpt lat="45.88461" lon="4.48348">
        <ele>456.09375936359</ele>
        <time>2013-09-19T18:37:37Z</time>
      </trkpt>
      <trkpt lat="45.88468" lon="4.48355">
        <ele>456.09375936359</ele>
        <time>2013-09-19T18:37:42Z</time>
      </trkpt>
      <trkpt lat="45.88472" lon="4.48362">
        <ele>455.31859312614</ele>
        <time>2013-09-19T18:37:47Z</time>
      </trkpt>
      <trkpt lat="45.88478" lon="4.48372">
        <ele>455.31859312614</ele>
        <time>2013-09-19T18:37:52Z</time>
      </trkpt>
      <trkpt lat="45.88483" lon="4.48383">
        <ele>454.58869276461</ele>
        <time>2013-09-19T18:37:57Z</time>
      </trkpt>
      <trkpt lat="45.8849" lon="4.48393">
        <ele>453.95144125684</ele>
        <time>2013-09-19T18:38:02Z</time>
      </trkpt>
      <trkpt lat="45.88494" lon="4.48403">
        <ele>453.95144125684</ele>
        <time>2013-09-19T18:38:07Z</time>
      </trkpt>
      <trkpt lat="45.88498" lon="4.48415">
        <ele>453.22102386647</ele>
        <time>2013-09-19T18:38:12Z</time>
      </trkpt>
      <trkpt lat="45.885" lon="4.48426">
        <ele>453.22102386647</ele>
        <time>2013-09-19T18:38:17Z</time>
      </trkpt>
      <trkpt lat="45.88503" lon="4.48436">
        <ele>452.45523055648</ele>
        <time>2013-09-19T18:38:22Z</time>
      </trkpt>
      <trkpt lat="45.88507" lon="4.48448">
        <ele>451.58684819251</ele>
        <time>2013-09-19T18:38:27Z</time>
      </trkpt>
      <trkpt lat="45.88509" lon="4.48458">
        <ele>451.58684819251</ele>
        <time>2013-09-19T18:38:32Z</time>
      </trkpt>
      <trkpt lat="45.88513" lon="4.48472">
        <ele>450.64192109344</ele>
        <time>2013-09-19T18:38:37Z</time>
      </trkpt>
      <trkpt lat="45.88517" lon="4.48485">
        <ele>449.72800023869</ele>
        <time>2013-09-19T18:38:42Z</time>
      </trkpt>
      <trkpt lat="45.8852" lon="4.48497">
        <ele>448.88401296306</ele>
        <time>2013-09-19T18:38:47Z</time>
      </trkpt>
      <trkpt lat="45.88523" lon="4.4851">
        <ele>448.01875965597</ele>
        <time>2013-09-19T18:38:52Z</time>
      </trkpt>
      <trkpt lat="45.88526" lon="4.48521">
        <ele>448.01875965597</ele>
        <time>2013-09-19T18:38:57Z</time>
      </trkpt>
      <trkpt lat="45.88529" lon="4.48533">
        <ele>447.31465914214</ele>
        <time>2013-09-19T18:39:02Z</time>
      </trkpt>
      <trkpt lat="45.88532" lon="4.48544">
        <ele>447.31465914214</ele>
        <time>2013-09-19T18:39:07Z</time>
      </trkpt>
      <trkpt lat="45.88535" lon="4.48555">
        <ele>446.63289160008</ele>
        <time>2013-09-19T18:39:12Z</time>
      </trkpt>
      <trkpt lat="45.88538" lon="4.48565">
        <ele>446.63289160008</ele>
        <time>2013-09-19T18:39:17Z</time>
      </trkpt>
      <trkpt lat="45.88542" lon="4.48577">
        <ele>446.0270191415</ele>
        <time>2013-09-19T18:39:22Z</time>
      </trkpt>
      <trkpt lat="45.88544" lon="4.48589">
        <ele>446.0270191415</ele>
        <time>2013-09-19T18:39:27Z</time>
      </trkpt>
      <trkpt lat="45.88546" lon="4.48598">
        <ele>445.40836970341</ele>
        <time>2013-09-19T18:39:32Z</time>
      </trkpt>
      <trkpt lat="45.88549" lon="4.48607">
        <ele>445.40836970341</ele>
        <time>2013-09-19T18:39:37Z</time>
      </trkpt>
      <trkpt lat="45.88552" lon="4.48616">
        <ele>445.20947309506</ele>
        <time>2013-09-19T18:39:42Z</time>
      </trkpt>
      <trkpt lat="45.88555" lon="4.48625">
        <ele>445.20947309506</ele>
        <time>2013-09-19T18:39:47Z</time>
      </trkpt>
      <trkpt lat="45.88559" lon="4.48636">
        <ele>445.26404868153</ele>
        <time>2013-09-19T18:39:52Z</time>
      </trkpt>
      <trkpt lat="45.88564" lon="4.48647">
        <ele>445.27649680198</ele>
        <time>2013-09-19T18:39:57Z</time>
      </trkpt>
      <trkpt lat="45.88569" lon="4.48658">
        <ele>445.27649680198</ele>
        <time>2013-09-19T18:40:02Z</time>
      </trkpt>
      <trkpt lat="45.88573" lon="4.48668">
        <ele>445.1230493563</ele>
        <time>2013-09-19T18:40:07Z</time>
      </trkpt>
      <trkpt lat="45.88578" lon="4.48679">
        <ele>445.1230493563</ele>
        <time>2013-09-19T18:40:12Z</time>
      </trkpt>
      <trkpt lat="45.88582" lon="4.48688">
        <ele>444.88517641004</ele>
        <time>2013-09-19T18:40:17Z</time>
      </trkpt>
      <trkpt lat="45.88587" lon="4.48699">
        <ele>444.88517641004</ele>
        <time>2013-09-19T18:40:22Z</time>
      </trkpt>
      <trkpt lat="45.88591" lon="4.48709">
        <ele>444.74028447235</ele>
        <time>2013-09-19T18:40:27Z</time>
      </trkpt>
      <trkpt lat="45.88596" lon="4.48718">
        <ele>444.74028447235</ele>
        <time>2013-09-19T18:40:32Z</time>
      </trkpt>
      <trkpt lat="45.886" lon="4.48727">
        <ele>444.66991680832</ele>
        <time>2013-09-19T18:40:37Z</time>
      </trkpt>
      <trkpt lat="45.88605" lon="4.48736">
        <ele>444.66991680832</ele>
        <time>2013-09-19T18:40:42Z</time>
      </trkpt>
      <trkpt lat="45.8861" lon="4.48744">
        <ele>444.61289249843</ele>
        <time>2013-09-19T18:40:47Z</time>
      </trkpt>
      <trkpt lat="45.88617" lon="4.48752">
        <ele>444.61289249843</ele>
        <time>2013-09-19T18:40:52Z</time>
      </trkpt>
      <trkpt lat="45.88623" lon="4.4876">
        <ele>444.49643832652</ele>
        <time>2013-09-19T18:40:57Z</time>
      </trkpt>
      <trkpt lat="45.88629" lon="4.48767">
        <ele>444.49643832652</ele>
        <time>2013-09-19T18:41:02Z</time>
      </trkpt>
      <trkpt lat="45.88635" lon="4.48773">
        <ele>444.6476601568</ele>
        <time>2013-09-19T18:41:07Z</time>
      </trkpt>
      <trkpt lat="45.8864" lon="4.48779">
        <ele>444.6476601568</ele>
        <time>2013-09-19T18:41:12Z</time>
      </trkpt>
      <trkpt lat="45.88646" lon="4.48786">
        <ele>445.03575306947</ele>
        <time>2013-09-19T18:41:17Z</time>
      </trkpt>
      <trkpt lat="45.88652" lon="4.48792">
        <ele>445.03575306947</ele>
        <time>2013-09-19T18:41:22Z</time>
      </trkpt>
      <trkpt lat="45.88659" lon="4.48799">
        <ele>445.48181671029</ele>
        <time>2013-09-19T18:41:27Z</time>
      </trkpt>
      <trkpt lat="45.88665" lon="4.48805">
        <ele>445.48181671029</ele>
        <time>2013-09-19T18:41:32Z</time>
      </trkpt>
      <trkpt lat="45.88671" lon="4.48812">
        <ele>446.02527541386</ele>
        <time>2013-09-19T18:41:37Z</time>
      </trkpt>
      <trkpt lat="45.88677" lon="4.48819">
        <ele>446.02527541386</ele>
        <time>2013-09-19T18:41:42Z</time>
      </trkpt>
      <trkpt lat="45.88682" lon="4.48825">
        <ele>446.77739153539</ele>
        <time>2013-09-19T18:41:47Z</time>
      </trkpt>
      <trkpt lat="45.88689" lon="4.48832">
        <ele>446.77739153539</ele>
        <time>2013-09-19T18:41:52Z</time>
      </trkpt>
      <trkpt lat="45.88697" lon="4.48838">
        <ele>447.52611001352</ele>
        <time>2013-09-19T18:41:57Z</time>
      </trkpt>
      <trkpt lat="45.88703" lon="4.48845">
        <ele>447.52611001352</ele>
        <time>2013-09-19T18:42:02Z</time>
      </trkpt>
      <trkpt lat="45.88709" lon="4.48852">
        <ele>448.38914889247</ele>
        <time>2013-09-19T18:42:07Z</time>
      </trkpt>
      <trkpt lat="45.88716" lon="4.48858">
        <ele>448.38914889247</ele>
        <time>2013-09-19T18:42:12Z</time>
      </trkpt>
      <trkpt lat="45.88723" lon="4.48865">
        <ele>449.05371989582</ele>
        <time>2013-09-19T18:42:17Z</time>
      </trkpt>
      <trkpt lat="45.88729" lon="4.48871">
        <ele>449.05371989582</ele>
        <time>2013-09-19T18:42:22Z</time>
      </trkpt>
      <trkpt lat="45.88735" lon="4.48877">
        <ele>449.54715727162</ele>
        <time>2013-09-19T18:42:27Z</time>
      </trkpt>
      <trkpt lat="45.88741" lon="4.48884">
        <ele>449.54715727162</ele>
        <time>2013-09-19T18:42:32Z</time>
      </trkpt>
      <trkpt lat="45.88747" lon="4.4889">
        <ele>450.25828550175</ele>
        <time>2013-09-19T18:42:37Z</time>
      </trkpt>
      <trkpt lat="45.88753" lon="4.48898">
        <ele>450.25828550175</ele>
        <time>2013-09-19T18:42:42Z</time>
      </trkpt>
      <trkpt lat="45.88758" lon="4.48905">
        <ele>451.36465751139</ele>
        <time>2013-09-19T18:42:47Z</time>
      </trkpt>
      <trkpt lat="45.88764" lon="4.48911">
        <ele>451.36465751139</ele>
        <time>2013-09-19T18:42:52Z</time>
      </trkpt>
      <trkpt lat="45.88769" lon="4.48917">
        <ele>452.92265209609</ele>
        <time>2013-09-19T18:42:57Z</time>
      </trkpt>
      <trkpt lat="45.88772" lon="4.48924">
        <ele>452.92265209609</ele>
        <time>2013-09-19T18:43:02Z</time>
      </trkpt>
      <trkpt lat="45.88774" lon="4.48933">
        <ele>454.57520700736</ele>
        <time>2013-09-19T18:43:07Z</time>
      </trkpt>
      <trkpt lat="45.88777" lon="4.48942">
        <ele>454.57520700736</ele>
        <time>2013-09-19T18:43:12Z</time>
      </trkpt>
      <trkpt lat="45.88779" lon="4.48951">
        <ele>456.2645577116</ele>
        <time>2013-09-19T18:43:17Z</time>
      </trkpt>
      <trkpt lat="45.88782" lon="4.48962">
        <ele>456.2645577116</ele>
        <time>2013-09-19T18:43:22Z</time>
      </trkpt>
      <trkpt lat="45.88785" lon="4.48972">
        <ele>457.89267562221</ele>
        <time>2013-09-19T18:43:27Z</time>
      </trkpt>
      <trkpt lat="45.8879" lon="4.48983">
        <ele>459.43009765336</ele>
        <time>2013-09-19T18:43:32Z</time>
      </trkpt>
      <trkpt lat="45.88795" lon="4.48993">
        <ele>459.43009765336</ele>
        <time>2013-09-19T18:43:37Z</time>
      </trkpt>
      <trkpt lat="45.888" lon="4.49004">
        <ele>460.89528140343</ele>
        <time>2013-09-19T18:43:42Z</time>
      </trkpt>
      <trkpt lat="45.88804" lon="4.49013">
        <ele>460.89528140343</ele>
        <time>2013-09-19T18:43:47Z</time>
      </trkpt>
      <trkpt lat="45.88808" lon="4.49023">
        <ele>462.24587555336</ele>
        <time>2013-09-19T18:43:52Z</time>
      </trkpt>
      <trkpt lat="45.88812" lon="4.49033">
        <ele>462.24587555336</ele>
        <time>2013-09-19T18:43:57Z</time>
      </trkpt>
      <trkpt lat="45.88817" lon="4.49044">
        <ele>463.7712916417</ele>
        <time>2013-09-19T18:44:02Z</time>
      </trkpt>
      <trkpt lat="45.88822" lon="4.49054">
        <ele>463.7712916417</ele>
        <time>2013-09-19T18:44:07Z</time>
      </trkpt>
      <trkpt lat="45.88827" lon="4.49064">
        <ele>465.12704893294</ele>
        <time>2013-09-19T18:44:12Z</time>
      </trkpt>
      <trkpt lat="45.88831" lon="4.49074">
        <ele>465.12704893294</ele>
        <time>2013-09-19T18:44:17Z</time>
      </trkpt>
      <trkpt lat="45.88836" lon="4.49084">
        <ele>466.23541082327</ele>
        <time>2013-09-19T18:44:22Z</time>
      </trkpt>
      <trkpt lat="45.88841" lon="4.49094">
        <ele>466.23541082327</ele>
        <time>2013-09-19T18:44:27Z</time>
      </trkpt>
      <trkpt lat="45.88845" lon="4.49104">
        <ele>467.02596261767</ele>
        <time>2013-09-19T18:44:32Z</time>
      </trkpt>
      <trkpt lat="45.88849" lon="4.49113">
        <ele>467.02596261767</ele>
        <time>2013-09-19T18:44:37Z</time>
      </trkpt>
      <trkpt lat="45.88854" lon="4.49123">
        <ele>467.80376375023</ele>
        <time>2013-09-19T18:44:42Z</time>
      </trkpt>
      <trkpt lat="45.88857" lon="4.49131">
        <ele>467.80376375023</ele>
        <time>2013-09-19T18:44:47Z</time>
      </trkpt>
      <trkpt lat="45.88861" lon="4.4914">
        <ele>468.56894283033</ele>
        <time>2013-09-19T18:44:52Z</time>
      </trkpt>
      <trkpt lat="45.88865" lon="4.49149">
        <ele>468.56894283033</ele>
        <time>2013-09-19T18:44:57Z</time>
      </trkpt>
      <trkpt lat="45.88868" lon="4.49159">
        <ele>469.49784237203</ele>
        <time>2013-09-19T18:45:02Z</time>
      </trkpt>
      <trkpt lat="45.88871" lon="4.49168">
        <ele>469.49784237203</ele>
        <time>2013-09-19T18:45:07Z</time>
      </trkpt>
      <trkpt lat="45.88875" lon="4.49178">
        <ele>470.54684901993</ele>
        <time>2013-09-19T18:45:12Z</time>
      </trkpt>
      <trkpt lat="45.88879" lon="4.49187">
        <ele>470.54684901993</ele>
        <time>2013-09-19T18:45:17Z</time>
      </trkpt>
      <trkpt lat="45.88882" lon="4.49195">
        <ele>471.4418389022</ele>
        <time>2013-09-19T18:45:22Z</time>
      </trkpt>
      <trkpt lat="45.88886" lon="4.49205">
        <ele>471.4418389022</ele>
        <time>2013-09-19T18:45:27Z</time>
      </trkpt>
      <trkpt lat="45.8889" lon="4.49215">
        <ele>472.26700066328</ele>
        <time>2013-09-19T18:45:32Z</time>
      </trkpt>
      <trkpt lat="45.88894" lon="4.49225">
        <ele>472.26700066328</ele>
        <time>2013-09-19T18:45:37Z</time>
      </trkpt>
      <trkpt lat="45.88898" lon="4.49235">
        <ele>473.21643475224</ele>
        <time>2013-09-19T18:45:42Z</time>
      </trkpt>
      <trkpt lat="45.88902" lon="4.49243">
        <ele>473.21643475224</ele>
        <time>2013-09-19T18:45:47Z</time>
      </trkpt>
      <trkpt lat="45.88905" lon="4.49253">
        <ele>474.25031655513</ele>
        <time>2013-09-19T18:45:52Z</time>
      </trkpt>
      <trkpt lat="45.88909" lon="4.49263">
        <ele>474.25031655513</ele>
        <time>2013-09-19T18:45:57Z</time>
      </trkpt>
      <trkpt lat="45.88913" lon="4.49273">
        <ele>475.23021649189</ele>
        <time>2013-09-19T18:46:02Z</time>
      </trkpt>
      <trkpt lat="45.88916" lon="4.49282">
        <ele>475.23021649189</ele>
        <time>2013-09-19T18:46:07Z</time>
      </trkpt>
      <trkpt lat="45.88921" lon="4.49293">
        <ele>476.07231837719</ele>
        <time>2013-09-19T18:46:12Z</time>
      </trkpt>
      <trkpt lat="45.88925" lon="4.49303">
        <ele>476.07231837719</ele>
        <time>2013-09-19T18:46:17Z</time>
      </trkpt>
      <trkpt lat="45.88929" lon="4.49313">
        <ele>476.80113350707</ele>
        <time>2013-09-19T18:46:22Z</time>
      </trkpt>
      <trkpt lat="45.88934" lon="4.49322">
        <ele>476.80113350707</ele>
        <time>2013-09-19T18:46:27Z</time>
      </trkpt>
      <trkpt lat="45.8894" lon="4.49332">
        <ele>477.52640522204</ele>
        <time>2013-09-19T18:46:32Z</time>
      </trkpt>
      <trkpt lat="45.88942" lon="4.49341">
        <ele>477.52640522204</ele>
        <time>2013-09-19T18:46:37Z</time>
      </trkpt>
      <trkpt lat="45.88944" lon="4.49351">
        <ele>478.34946591213</ele>
        <time>2013-09-19T18:46:42Z</time>
      </trkpt>
      <trkpt lat="45.88944" lon="4.4936">
        <ele>478.34946591213</ele>
        <time>2013-09-19T18:46:47Z</time>
      </trkpt>
      <trkpt lat="45.88944" lon="4.49368">
        <ele>479.27700729036</ele>
        <time>2013-09-19T18:46:52Z</time>
      </trkpt>
      <trkpt lat="45.88944" lon="4.49377">
        <ele>479.27700729036</ele>
        <time>2013-09-19T18:46:57Z</time>
      </trkpt>
      <trkpt lat="45.88946" lon="4.49387">
        <ele>480.06950024215</ele>
        <time>2013-09-19T18:47:02Z</time>
      </trkpt>
      <trkpt lat="45.88951" lon="4.494">
        <ele>480.7801984596</ele>
        <time>2013-09-19T18:47:07Z</time>
      </trkpt>
      <trkpt lat="45.88958" lon="4.4941">
        <ele>481.29985194591</ele>
        <time>2013-09-19T18:47:12Z</time>
      </trkpt>
      <trkpt lat="45.88965" lon="4.49418">
        <ele>481.29985194591</ele>
        <time>2013-09-19T18:47:17Z</time>
      </trkpt>
      <trkpt lat="45.88972" lon="4.49426">
        <ele>481.60003811839</ele>
        <time>2013-09-19T18:47:22Z</time>
      </trkpt>
      <trkpt lat="45.88978" lon="4.49433">
        <ele>481.60003811839</ele>
        <time>2013-09-19T18:47:27Z</time>
      </trkpt>
      <trkpt lat="45.88983" lon="4.4944">
        <ele>481.90022687984</ele>
        <time>2013-09-19T18:47:32Z</time>
      </trkpt>
      <trkpt lat="45.88989" lon="4.49449">
        <ele>481.90022687984</ele>
        <time>2013-09-19T18:47:37Z</time>
      </trkpt>
      <trkpt lat="45.88993" lon="4.49457">
        <ele>482.24499085247</ele>
        <time>2013-09-19T18:47:42Z</time>
      </trkpt>
      <trkpt lat="45.88999" lon="4.49465">
        <ele>482.24499085247</ele>
        <time>2013-09-19T18:47:47Z</time>
      </trkpt>
      <trkpt lat="45.89004" lon="4.49475">
        <ele>482.32947392806</ele>
        <time>2013-09-19T18:47:52Z</time>
      </trkpt>
      <trkpt lat="45.89009" lon="4.49486">
        <ele>482.08832711666</ele>
        <time>2013-09-19T18:47:57Z</time>
      </trkpt>
      <trkpt lat="45.89014" lon="4.49498">
        <ele>481.46190393081</ele>
        <time>2013-09-19T18:48:02Z</time>
      </trkpt>
      <trkpt lat="45.89019" lon="4.49511">
        <ele>480.62667938888</ele>
        <time>2013-09-19T18:48:07Z</time>
      </trkpt>
      <trkpt lat="45.89023" lon="4.49522">
        <ele>480.62667938888</ele>
        <time>2013-09-19T18:48:12Z</time>
      </trkpt>
      <trkpt lat="45.89026" lon="4.49532">
        <ele>479.45837027451</ele>
        <time>2013-09-19T18:48:17Z</time>
      </trkpt>
      <trkpt lat="45.89027" lon="4.49543">
        <ele>479.45837027451</ele>
        <time>2013-09-19T18:48:22Z</time>
      </trkpt>
      <trkpt lat="45.89029" lon="4.49555">
        <ele>478.03016711145</ele>
        <time>2013-09-19T18:48:27Z</time>
      </trkpt>
      <trkpt lat="45.8903" lon="4.49566">
        <ele>478.03016711145</ele>
        <time>2013-09-19T18:48:32Z</time>
      </trkpt>
      <trkpt lat="45.89031" lon="4.49577">
        <ele>476.32407010123</ele>
        <time>2013-09-19T18:48:37Z</time>
      </trkpt>
      <trkpt lat="45.89032" lon="4.49589">
        <ele>476.32407010123</ele>
        <time>2013-09-19T18:48:42Z</time>
      </trkpt>
      <trkpt lat="45.89033" lon="4.49601">
        <ele>474.42507458349</ele>
        <time>2013-09-19T18:48:47Z</time>
      </trkpt>
      <trkpt lat="45.89033" lon="4.49614">
        <ele>472.47010920492</ele>
        <time>2013-09-19T18:48:52Z</time>
      </trkpt>
      <trkpt lat="45.89034" lon="4.49627">
        <ele>472.47010920492</ele>
        <time>2013-09-19T18:48:57Z</time>
      </trkpt>
      <trkpt lat="45.89034" lon="4.49639">
        <ele>470.48518767236</ele>
        <time>2013-09-19T18:49:02Z</time>
      </trkpt>
      <trkpt lat="45.89033" lon="4.4965">
        <ele>470.48518767236</ele>
        <time>2013-09-19T18:49:07Z</time>
      </trkpt>
      <trkpt lat="45.89033" lon="4.49663">
        <ele>468.52324580827</ele>
        <time>2013-09-19T18:49:12Z</time>
      </trkpt>
      <trkpt lat="45.89032" lon="4.49676">
        <ele>466.63315348785</ele>
        <time>2013-09-19T18:49:17Z</time>
      </trkpt>
      <trkpt lat="45.89031" lon="4.49688">
        <ele>466.63315348785</ele>
        <time>2013-09-19T18:49:22Z</time>
      </trkpt>
      <trkpt lat="45.89029" lon="4.497">
        <ele>464.88870457581</ele>
        <time>2013-09-19T18:49:27Z</time>
      </trkpt>
      <trkpt lat="45.89028" lon="4.49712">
        <ele>464.88870457581</ele>
        <time>2013-09-19T18:49:32Z</time>
      </trkpt>
      <trkpt lat="45.89026" lon="4.49723">
        <ele>463.17020230577</ele>
        <time>2013-09-19T18:49:37Z</time>
      </trkpt>
      <trkpt lat="45.89025" lon="4.49735">
        <ele>463.17020230577</ele>
        <time>2013-09-19T18:49:42Z</time>
      </trkpt>
      <trkpt lat="45.89023" lon="4.49746">
        <ele>461.36650958104</ele>
        <time>2013-09-19T18:49:47Z</time>
      </trkpt>
      <trkpt lat="45.89022" lon="4.49757">
        <ele>461.36650958104</ele>
        <time>2013-09-19T18:49:52Z</time>
      </trkpt>
      <trkpt lat="45.89022" lon="4.49769">
        <ele>459.7497679365</ele>
        <time>2013-09-19T18:49:57Z</time>
      </trkpt>
      <trkpt lat="45.89021" lon="4.4978">
        <ele>459.7497679365</ele>
        <time>2013-09-19T18:50:02Z</time>
      </trkpt>
      <trkpt lat="45.8902" lon="4.49792">
        <ele>458.1819570082</ele>
        <time>2013-09-19T18:50:07Z</time>
      </trkpt>
      <trkpt lat="45.8902" lon="4.49802">
        <ele>458.1819570082</ele>
        <time>2013-09-19T18:50:12Z</time>
      </trkpt>
      <trkpt lat="45.89018" lon="4.49814">
        <ele>456.63586163939</ele>
        <time>2013-09-19T18:50:17Z</time>
      </trkpt>
      <trkpt lat="45.89018" lon="4.49825">
        <ele>456.63586163939</ele>
        <time>2013-09-19T18:50:22Z</time>
      </trkpt>
      <trkpt lat="45.89017" lon="4.49836">
        <ele>455.18699805068</ele>
        <time>2013-09-19T18:50:27Z</time>
      </trkpt>
      <trkpt lat="45.89015" lon="4.49847">
        <ele>455.18699805068</ele>
        <time>2013-09-19T18:50:32Z</time>
      </trkpt>
      <trkpt lat="45.89013" lon="4.49857">
        <ele>453.68852045475</ele>
        <time>2013-09-19T18:50:37Z</time>
      </trkpt>
      <trkpt lat="45.89011" lon="4.49867">
        <ele>453.68852045475</ele>
        <time>2013-09-19T18:50:42Z</time>
      </trkpt>
      <trkpt lat="45.8901" lon="4.49879">
        <ele>452.16300866102</ele>
        <time>2013-09-19T18:50:47Z</time>
      </trkpt>
      <trkpt lat="45.89009" lon="4.49891">
        <ele>452.16300866102</ele>
        <time>2013-09-19T18:50:52Z</time>
      </trkpt>
      <trkpt lat="45.89008" lon="4.49902">
        <ele>450.54474503985</ele>
        <time>2013-09-19T18:50:57Z</time>
      </trkpt>
      <trkpt lat="45.89007" lon="4.49914">
        <ele>450.54474503985</ele>
        <time>2013-09-19T18:51:02Z</time>
      </trkpt>
      <trkpt lat="45.89008" lon="4.49926">
        <ele>448.8450456962</ele>
        <time>2013-09-19T18:51:07Z</time>
      </trkpt>
      <trkpt lat="45.89008" lon="4.49938">
        <ele>448.8450456962</ele>
        <time>2013-09-19T18:51:12Z</time>
      </trkpt>
      <trkpt lat="45.89008" lon="4.4995">
        <ele>447.14655109318</ele>
        <time>2013-09-19T18:51:17Z</time>
      </trkpt>
      <trkpt lat="45.89008" lon="4.49961">
        <ele>447.14655109318</ele>
        <time>2013-09-19T18:51:22Z</time>
      </trkpt>
      <trkpt lat="45.89007" lon="4.49971">
        <ele>445.64099621176</ele>
        <time>2013-09-19T18:51:27Z</time>
      </trkpt>
      <trkpt lat="45.89006" lon="4.49983">
        <ele>445.64099621176</ele>
        <time>2013-09-19T18:51:32Z</time>
      </trkpt>
      <trkpt lat="45.89005" lon="4.49996">
        <ele>443.91407036768</ele>
        <time>2013-09-19T18:51:37Z</time>
      </trkpt>
      <trkpt lat="45.89005" lon="4.50006">
        <ele>443.91407036768</ele>
        <time>2013-09-19T18:51:42Z</time>
      </trkpt>
      <trkpt lat="45.89005" lon="4.50016">
        <ele>442.18802599878</ele>
        <time>2013-09-19T18:51:47Z</time>
      </trkpt>
      <trkpt lat="45.89005" lon="4.50028">
        <ele>442.18802599878</ele>
        <time>2013-09-19T18:51:52Z</time>
      </trkpt>
      <trkpt lat="45.89006" lon="4.50039">
        <ele>440.56763987722</ele>
        <time>2013-09-19T18:51:57Z</time>
      </trkpt>
      <trkpt lat="45.89007" lon="4.5005">
        <ele>440.56763987722</ele>
        <time>2013-09-19T18:52:02Z</time>
      </trkpt>
      <trkpt lat="45.89007" lon="4.50062">
        <ele>439.03416527355</ele>
        <time>2013-09-19T18:52:07Z</time>
      </trkpt>
      <trkpt lat="45.89008" lon="4.50073">
        <ele>439.03416527355</ele>
        <time>2013-09-19T18:52:12Z</time>
      </trkpt>
      <trkpt lat="45.89009" lon="4.50086">
        <ele>437.59865966</ele>
        <time>2013-09-19T18:52:17Z</time>
      </trkpt>
      <trkpt lat="45.89009" lon="4.50099">
        <ele>436.2997611196</ele>
        <time>2013-09-19T18:52:22Z</time>
      </trkpt>
      <trkpt lat="45.89009" lon="4.50111">
        <ele>436.2997611196</ele>
        <time>2013-09-19T18:52:27Z</time>
      </trkpt>
      <trkpt lat="45.89008" lon="4.50122">
        <ele>434.97090711421</ele>
        <time>2013-09-19T18:52:32Z</time>
      </trkpt>
      <trkpt lat="45.89008" lon="4.50133">
        <ele>434.97090711421</ele>
        <time>2013-09-19T18:52:37Z</time>
      </trkpt>
      <trkpt lat="45.89008" lon="4.50144">
        <ele>433.6307071352</ele>
        <time>2013-09-19T18:52:42Z</time>
      </trkpt>
      <trkpt lat="45.89008" lon="4.50156">
        <ele>433.6307071352</ele>
        <time>2013-09-19T18:52:47Z</time>
      </trkpt>
      <trkpt lat="45.89007" lon="4.50166">
        <ele>432.48366999805</ele>
        <time>2013-09-19T18:52:52Z</time>
      </trkpt>
      <trkpt lat="45.89007" lon="4.50177">
        <ele>432.48366999805</ele>
        <time>2013-09-19T18:52:57Z</time>
      </trkpt>
      <trkpt lat="45.89006" lon="4.50189">
        <ele>431.64650298667</ele>
        <time>2013-09-19T18:53:02Z</time>
      </trkpt>
      <trkpt lat="45.89005" lon="4.502">
        <ele>431.64650298667</ele>
        <time>2013-09-19T18:53:07Z</time>
      </trkpt>
      <trkpt lat="45.89004" lon="4.5021">
        <ele>431.11102070325</ele>
        <time>2013-09-19T18:53:12Z</time>
      </trkpt>
      <trkpt lat="45.89003" lon="4.50219">
        <ele>431.11102070325</ele>
        <time>2013-09-19T18:53:17Z</time>
      </trkpt>
      <trkpt lat="45.89003" lon="4.50228">
        <ele>430.89750080306</ele>
        <time>2013-09-19T18:53:22Z</time>
      </trkpt>
      <trkpt lat="45.89003" lon="4.50238">
        <ele>430.89750080306</ele>
        <time>2013-09-19T18:53:27Z</time>
      </trkpt>
      <trkpt lat="45.89" lon="4.50247">
        <ele>430.95165593403</ele>
        <time>2013-09-19T18:53:32Z</time>
      </trkpt>
      <trkpt lat="45.88996" lon="4.50257">
        <ele>430.95165593403</ele>
        <time>2013-09-19T18:53:37Z</time>
      </trkpt>
      <trkpt lat="45.88992" lon="4.50267">
        <ele>431.10704728053</ele>
        <time>2013-09-19T18:53:42Z</time>
      </trkpt>
      <trkpt lat="45.88987" lon="4.50276">
        <ele>431.10704728053</ele>
        <time>2013-09-19T18:53:47Z</time>
      </trkpt>
      <trkpt lat="45.88983" lon="4.50285">
        <ele>431.35322896195</ele>
        <time>2013-09-19T18:53:52Z</time>
      </trkpt>
      <trkpt lat="45.88979" lon="4.50294">
        <ele>431.35322896195</ele>
        <time>2013-09-19T18:53:57Z</time>
      </trkpt>
      <trkpt lat="45.88976" lon="4.50302">
        <ele>431.44961006213</ele>
        <time>2013-09-19T18:54:02Z</time>
      </trkpt>
      <trkpt lat="45.88972" lon="4.5031">
        <ele>431.44961006213</ele>
        <time>2013-09-19T18:54:07Z</time>
      </trkpt>
      <trkpt lat="45.88967" lon="4.5032">
        <ele>431.50511804408</ele>
        <time>2013-09-19T18:54:12Z</time>
      </trkpt>
      <trkpt lat="45.88965" lon="4.50332">
        <ele>431.50511804408</ele>
        <time>2013-09-19T18:54:17Z</time>
      </trkpt>
      <trkpt lat="45.88965" lon="4.50345">
        <ele>431.26045656139</ele>
        <time>2013-09-19T18:54:22Z</time>
      </trkpt>
      <trkpt lat="45.8896" lon="4.50354">
        <ele>431.26045656139</ele>
        <time>2013-09-19T18:54:27Z</time>
      </trkpt>
      <trkpt lat="45.88954" lon="4.50362">
        <ele>431.18235505564</ele>
        <time>2013-09-19T18:54:32Z</time>
      </trkpt>
      <trkpt lat="45.88949" lon="4.50371">
        <ele>431.18235505564</ele>
        <time>2013-09-19T18:54:37Z</time>
      </trkpt>
      <trkpt lat="45.88944" lon="4.50381">
        <ele>431.02542355046</ele>
        <time>2013-09-19T18:54:42Z</time>
      </trkpt>
      <trkpt lat="45.88938" lon="4.50392">
        <ele>430.99485168962</ele>
        <time>2013-09-19T18:54:47Z</time>
      </trkpt>
      <trkpt lat="45.88931" lon="4.50403">
        <ele>430.96334814581</ele>
        <time>2013-09-19T18:54:52Z</time>
      </trkpt>
      <trkpt lat="45.88925" lon="4.50413">
        <ele>430.96334814581</ele>
        <time>2013-09-19T18:54:57Z</time>
      </trkpt>
      <trkpt lat="45.8892" lon="4.50423">
        <ele>430.7985698238</ele>
        <time>2013-09-19T18:55:02Z</time>
      </trkpt>
      <trkpt lat="45.88918" lon="4.50438">
        <ele>430.2629910526</ele>
        <time>2013-09-19T18:55:07Z</time>
      </trkpt>
      <trkpt lat="45.88913" lon="4.50449">
        <ele>430.2629910526</ele>
        <time>2013-09-19T18:55:12Z</time>
      </trkpt>
      <trkpt lat="45.88909" lon="4.50459">
        <ele>429.45463852523</ele>
        <time>2013-09-19T18:55:17Z</time>
      </trkpt>
      <trkpt lat="45.88904" lon="4.5047">
        <ele>429.45463852523</ele>
        <time>2013-09-19T18:55:22Z</time>
      </trkpt>
      <trkpt lat="45.88898" lon="4.50481">
        <ele>428.39306567359</ele>
        <time>2013-09-19T18:55:27Z</time>
      </trkpt>
      <trkpt lat="45.88893" lon="4.5049">
        <ele>428.39306567359</ele>
        <time>2013-09-19T18:55:32Z</time>
      </trkpt>
      <trkpt lat="45.88888" lon="4.50498">
        <ele>427.5150476654</ele>
        <time>2013-09-19T18:55:37Z</time>
      </trkpt>
      <trkpt lat="45.88882" lon="4.50506">
        <ele>427.5150476654</ele>
        <time>2013-09-19T18:55:42Z</time>
      </trkpt>
      <trkpt lat="45.88877" lon="4.50514">
        <ele>426.76361936767</ele>
        <time>2013-09-19T18:55:47Z</time>
      </trkpt>
      <trkpt lat="45.88871" lon="4.50524">
        <ele>426.76361936767</ele>
        <time>2013-09-19T18:55:52Z</time>
      </trkpt>
      <trkpt lat="45.88865" lon="4.50533">
        <ele>426.14331015945</ele>
        <time>2013-09-19T18:55:57Z</time>
      </trkpt>
      <trkpt lat="45.8886" lon="4.50544">
        <ele>425.58591191366</ele>
        <time>2013-09-19T18:56:02Z</time>
      </trkpt>
      <trkpt lat="45.88856" lon="4.50555">
        <ele>425.58591191366</ele>
        <time>2013-09-19T18:56:07Z</time>
      </trkpt>
      <trkpt lat="45.88852" lon="4.50565">
        <ele>425.04248237706</ele>
        <time>2013-09-19T18:56:12Z</time>
      </trkpt>
      <trkpt lat="45.88848" lon="4.50575">
        <ele>425.04248237706</ele>
        <time>2013-09-19T18:56:17Z</time>
      </trkpt>
      <trkpt lat="45.88844" lon="4.50585">
        <ele>424.337954237</ele>
        <time>2013-09-19T18:56:22Z</time>
      </trkpt>
      <trkpt lat="45.8884" lon="4.50595">
        <ele>424.337954237</ele>
        <time>2013-09-19T18:56:27Z</time>
      </trkpt>
      <trkpt lat="45.88837" lon="4.50605">
        <ele>423.71411533414</ele>
        <time>2013-09-19T18:56:32Z</time>
      </trkpt>
      <trkpt lat="45.88834" lon="4.50615">
        <ele>423.71411533414</ele>
        <time>2013-09-19T18:56:37Z</time>
      </trkpt>
      <trkpt lat="45.8883" lon="4.50625">
        <ele>422.97685779192</ele>
        <time>2013-09-19T18:56:42Z</time>
      </trkpt>
      <trkpt lat="45.88827" lon="4.50634">
        <ele>422.97685779192</ele>
        <time>2013-09-19T18:56:47Z</time>
      </trkpt>
      <trkpt lat="45.88823" lon="4.50643">
        <ele>422.39343058487</ele>
        <time>2013-09-19T18:56:52Z</time>
      </trkpt>
      <trkpt lat="45.88819" lon="4.50652">
        <ele>422.39343058487</ele>
        <time>2013-09-19T18:56:57Z</time>
      </trkpt>
      <trkpt lat="45.88816" lon="4.50661">
        <ele>421.82193420128</ele>
        <time>2013-09-19T18:57:02Z</time>
      </trkpt>
      <trkpt lat="45.88812" lon="4.5067">
        <ele>421.82193420128</ele>
        <time>2013-09-19T18:57:07Z</time>
      </trkpt>
      <trkpt lat="45.88808" lon="4.5068">
        <ele>420.84265432187</ele>
        <time>2013-09-19T18:57:12Z</time>
      </trkpt>
      <trkpt lat="45.88804" lon="4.5069">
        <ele>420.84265432187</ele>
        <time>2013-09-19T18:57:17Z</time>
      </trkpt>
      <trkpt lat="45.88798" lon="4.50699">
        <ele>419.58669017938</ele>
        <time>2013-09-19T18:57:22Z</time>
      </trkpt>
      <trkpt lat="45.88793" lon="4.50708">
        <ele>419.58669017938</ele>
        <time>2013-09-19T18:57:27Z</time>
      </trkpt>
      <trkpt lat="45.88789" lon="4.50717">
        <ele>417.93131233011</ele>
        <time>2013-09-19T18:57:32Z</time>
      </trkpt>
      <trkpt lat="45.88784" lon="4.50723">
        <ele>417.93131233011</ele>
        <time>2013-09-19T18:57:37Z</time>
      </trkpt>
      <trkpt lat="45.88779" lon="4.50728">
        <ele>416.23952284638</ele>
        <time>2013-09-19T18:57:42Z</time>
      </trkpt>
      <trkpt lat="45.88773" lon="4.50734">
        <ele>416.23952284638</ele>
        <time>2013-09-19T18:57:47Z</time>
      </trkpt>
      <trkpt lat="45.88767" lon="4.50741">
        <ele>414.71806572088</ele>
        <time>2013-09-19T18:57:52Z</time>
      </trkpt>
      <trkpt lat="45.88762" lon="4.50749">
        <ele>414.71806572088</ele>
        <time>2013-09-19T18:57:57Z</time>
      </trkpt>
      <trkpt lat="45.88758" lon="4.50756">
        <ele>413.28420484968</ele>
        <time>2013-09-19T18:58:02Z</time>
      </trkpt>
      <trkpt lat="45.88755" lon="4.50761">
        <ele>413.28420484968</ele>
        <time>2013-09-19T18:58:07Z</time>
      </trkpt>
      <trkpt lat="45.88752" lon="4.50768">
        <ele>412.20690906135</ele>
        <time>2013-09-19T18:58:12Z</time>
      </trkpt>
      <trkpt lat="45.88743" lon="4.50766">
        <ele>410.8552840182</ele>
        <time>2013-09-19T18:58:17Z</time>
      </trkpt>
      <trkpt lat="45.88736" lon="4.50757">
        <ele>409.19317655998</ele>
        <time>2013-09-19T18:58:22Z</time>
      </trkpt>
      <trkpt lat="45.88731" lon="4.50748">
        <ele>409.19317655998</ele>
        <time>2013-09-19T18:58:27Z</time>
      </trkpt>
      <trkpt lat="45.88727" lon="4.5074">
        <ele>407.04383181973</ele>
        <time>2013-09-19T18:58:32Z</time>
      </trkpt>
      <trkpt lat="45.88725" lon="4.5073">
        <ele>407.04383181973</ele>
        <time>2013-09-19T18:58:37Z</time>
      </trkpt>
      <trkpt lat="45.88722" lon="4.50719">
        <ele>404.64834434063</ele>
        <time>2013-09-19T18:58:42Z</time>
      </trkpt>
      <trkpt lat="45.88721" lon="4.50709">
        <ele>404.64834434063</ele>
        <time>2013-09-19T18:58:47Z</time>
      </trkpt>
      <trkpt lat="45.88718" lon="4.50701">
        <ele>402.6919218933</ele>
        <time>2013-09-19T18:58:52Z</time>
      </trkpt>
      <trkpt lat="45.88717" lon="4.50692">
        <ele>402.6919218933</ele>
        <time>2013-09-19T18:58:57Z</time>
      </trkpt>
      <trkpt lat="45.88716" lon="4.50682">
        <ele>400.94348674684</ele>
        <time>2013-09-19T18:59:02Z</time>
      </trkpt>
      <trkpt lat="45.88714" lon="4.50673">
        <ele>400.94348674684</ele>
        <time>2013-09-19T18:59:07Z</time>
      </trkpt>
      <trkpt lat="45.88712" lon="4.50664">
        <ele>399.46212696757</ele>
        <time>2013-09-19T18:59:12Z</time>
      </trkpt>
      <trkpt lat="45.88711" lon="4.50656">
        <ele>399.46212696757</ele>
        <time>2013-09-19T18:59:17Z</time>
      </trkpt>
      <trkpt lat="45.8871" lon="4.50647">
        <ele>398.40267429065</ele>
        <time>2013-09-19T18:59:22Z</time>
      </trkpt>
      <trkpt lat="45.88709" lon="4.50638">
        <ele>398.40267429065</ele>
        <time>2013-09-19T18:59:27Z</time>
      </trkpt>
      <trkpt lat="45.88707" lon="4.50628">
        <ele>397.51825229618</ele>
        <time>2013-09-19T18:59:32Z</time>
      </trkpt>
      <trkpt lat="45.88705" lon="4.50619">
        <ele>397.51825229618</ele>
        <time>2013-09-19T18:59:37Z</time>
      </trkpt>
      <trkpt lat="45.88704" lon="4.5061">
        <ele>396.78134347301</ele>
        <time>2013-09-19T18:59:42Z</time>
      </trkpt>
      <trkpt lat="45.88703" lon="4.50599">
        <ele>396.78134347301</ele>
        <time>2013-09-19T18:59:47Z</time>
      </trkpt>
      <trkpt lat="45.88702" lon="4.50589">
        <ele>396.25246499852</ele>
        <time>2013-09-19T18:59:52Z</time>
      </trkpt>
      <trkpt lat="45.887" lon="4.50578">
        <ele>396.25246499852</ele>
        <time>2013-09-19T18:59:57Z</time>
      </trkpt>
      <trkpt lat="45.88698" lon="4.50567">
        <ele>396.160004662</ele>
        <time>2013-09-19T19:00:02Z</time>
      </trkpt>
      <trkpt lat="45.88696" lon="4.50556">
        <ele>396.160004662</ele>
        <time>2013-09-19T19:00:07Z</time>
      </trkpt>
      <trkpt lat="45.88694" lon="4.50543">
        <ele>396.18110631246</ele>
        <time>2013-09-19T19:00:12Z</time>
      </trkpt>
      <trkpt lat="45.88693" lon="4.50533">
        <ele>396.18110631246</ele>
        <time>2013-09-19T19:00:17Z</time>
      </trkpt>
      <trkpt lat="45.88692" lon="4.50522">
        <ele>396.27569594917</ele>
        <time>2013-09-19T19:00:22Z</time>
      </trkpt>
      <trkpt lat="45.8869" lon="4.5051">
        <ele>396.27569594917</ele>
        <time>2013-09-19T19:00:27Z</time>
      </trkpt>
      <trkpt lat="45.88688" lon="4.50498">
        <ele>396.1758490359</ele>
        <time>2013-09-19T19:00:32Z</time>
      </trkpt>
      <trkpt lat="45.88687" lon="4.50486">
        <ele>396.1758490359</ele>
        <time>2013-09-19T19:00:37Z</time>
      </trkpt>
      <trkpt lat="45.88685" lon="4.50475">
        <ele>396.16708161587</ele>
        <time>2013-09-19T19:00:42Z</time>
      </trkpt>
      <trkpt lat="45.88684" lon="4.50464">
        <ele>396.16708161587</ele>
        <time>2013-09-19T19:00:47Z</time>
      </trkpt>
      <trkpt lat="45.88682" lon="4.50453">
        <ele>396.26869861585</ele>
        <time>2013-09-19T19:00:52Z</time>
      </trkpt>
      <trkpt lat="45.88678" lon="4.50441">
        <ele>396.26869861585</ele>
        <time>2013-09-19T19:00:57Z</time>
      </trkpt>
      <trkpt lat="45.88675" lon="4.5043">
        <ele>396.52711653214</ele>
        <time>2013-09-19T19:01:02Z</time>
      </trkpt>
      <trkpt lat="45.88671" lon="4.5042">
        <ele>396.52711653214</ele>
        <time>2013-09-19T19:01:07Z</time>
      </trkpt>
      <trkpt lat="45.88667" lon="4.50411">
        <ele>396.95610542906</ele>
        <time>2013-09-19T19:01:12Z</time>
      </trkpt>
      <trkpt lat="45.88662" lon="4.50401">
        <ele>396.95610542906</ele>
        <time>2013-09-19T19:01:17Z</time>
      </trkpt>
      <trkpt lat="45.88658" lon="4.50391">
        <ele>397.58239092365</ele>
        <time>2013-09-19T19:01:22Z</time>
      </trkpt>
      <trkpt lat="45.88654" lon="4.5038">
        <ele>397.58239092365</ele>
        <time>2013-09-19T19:01:27Z</time>
      </trkpt>
      <trkpt lat="45.8865" lon="4.50369">
        <ele>397.98348014061</ele>
        <time>2013-09-19T19:01:32Z</time>
      </trkpt>
      <trkpt lat="45.88646" lon="4.50358">
        <ele>397.98348014061</ele>
        <time>2013-09-19T19:01:37Z</time>
      </trkpt>
      <trkpt lat="45.88643" lon="4.50346">
        <ele>398.24416737254</ele>
        <time>2013-09-19T19:01:42Z</time>
      </trkpt>
      <trkpt lat="45.8864" lon="4.50335">
        <ele>398.24416737254</ele>
        <time>2013-09-19T19:01:47Z</time>
      </trkpt>
      <trkpt lat="45.88638" lon="4.50323">
        <ele>398.27053716123</ele>
        <time>2013-09-19T19:01:52Z</time>
      </trkpt>
      <trkpt lat="45.88637" lon="4.50311">
        <ele>398.27053716123</ele>
        <time>2013-09-19T19:01:57Z</time>
      </trkpt>
      <trkpt lat="45.88635" lon="4.503">
        <ele>398.00511674612</ele>
        <time>2013-09-19T19:02:02Z</time>
      </trkpt>
      <trkpt lat="45.88633" lon="4.50288">
        <ele>398.00511674612</ele>
        <time>2013-09-19T19:02:07Z</time>
      </trkpt>
      <trkpt lat="45.88631" lon="4.50278">
        <ele>397.5684742603</ele>
        <time>2013-09-19T19:02:12Z</time>
      </trkpt>
      <trkpt lat="45.88628" lon="4.50269">
        <ele>397.5684742603</ele>
        <time>2013-09-19T19:02:17Z</time>
      </trkpt>
      <trkpt lat="45.88626" lon="4.50258">
        <ele>397.04404676659</ele>
        <time>2013-09-19T19:02:22Z</time>
      </trkpt>
      <trkpt lat="45.88624" lon="4.50246">
        <ele>397.04404676659</ele>
        <time>2013-09-19T19:02:27Z</time>
      </trkpt>
      <trkpt lat="45.88622" lon="4.50234">
        <ele>396.37975492973</ele>
        <time>2013-09-19T19:02:32Z</time>
      </trkpt>
      <trkpt lat="45.8862" lon="4.50223">
        <ele>396.37975492973</ele>
        <time>2013-09-19T19:02:37Z</time>
      </trkpt>
      <trkpt lat="45.88617" lon="4.50212">
        <ele>395.68632413806</ele>
        <time>2013-09-19T19:02:42Z</time>
      </trkpt>
      <trkpt lat="45.88615" lon="4.50201">
        <ele>395.68632413806</ele>
        <time>2013-09-19T19:02:47Z</time>
      </trkpt>
      <trkpt lat="45.88612" lon="4.50191">
        <ele>395.23942278516</ele>
        <time>2013-09-19T19:02:52Z</time>
      </trkpt>
      <trkpt lat="45.88608" lon="4.50184">
        <ele>395.23942278516</ele>
        <time>2013-09-19T19:02:57Z</time>
      </trkpt>
      <trkpt lat="45.88602" lon="4.50176">
        <ele>394.96238061527</ele>
        <time>2013-09-19T19:03:02Z</time>
      </trkpt>
      <trkpt lat="45.88596" lon="4.50169">
        <ele>394.96238061527</ele>
        <time>2013-09-19T19:03:07Z</time>
      </trkpt>
      <trkpt lat="45.88589" lon="4.50161">
        <ele>394.63962886359</ele>
        <time>2013-09-19T19:03:12Z</time>
      </trkpt>
      <trkpt lat="45.88583" lon="4.50155">
        <ele>394.63962886359</ele>
        <time>2013-09-19T19:03:17Z</time>
      </trkpt>
      <trkpt lat="45.88576" lon="4.50148">
        <ele>394.57600796283</ele>
        <time>2013-09-19T19:03:22Z</time>
      </trkpt>
      <trkpt lat="45.8857" lon="4.5014">
        <ele>394.57600796283</ele>
        <time>2013-09-19T19:03:27Z</time>
      </trkpt>
      <trkpt lat="45.88564" lon="4.50132">
        <ele>394.6786052124</ele>
        <time>2013-09-19T19:03:32Z</time>
      </trkpt>
      <trkpt lat="45.88558" lon="4.50124">
        <ele>394.6786052124</ele>
        <time>2013-09-19T19:03:37Z</time>
      </trkpt>
      <trkpt lat="45.88554" lon="4.50115">
        <ele>394.84651319426</ele>
        <time>2013-09-19T19:03:42Z</time>
      </trkpt>
      <trkpt lat="45.88549" lon="4.50106">
        <ele>394.84651319426</ele>
        <time>2013-09-19T19:03:47Z</time>
      </trkpt>
      <trkpt lat="45.88544" lon="4.50096">
        <ele>395.08699091957</ele>
        <time>2013-09-19T19:03:52Z</time>
      </trkpt>
      <trkpt lat="45.88539" lon="4.50085">
        <ele>395.08699091957</ele>
        <time>2013-09-19T19:03:57Z</time>
      </trkpt>
      <trkpt lat="45.88536" lon="4.50075">
        <ele>395.26251079355</ele>
        <time>2013-09-19T19:04:02Z</time>
      </trkpt>
      <trkpt lat="45.88533" lon="4.50064">
        <ele>395.26251079355</ele>
        <time>2013-09-19T19:04:07Z</time>
      </trkpt>
      <trkpt lat="45.8853" lon="4.50052">
        <ele>395.33236050374</ele>
        <time>2013-09-19T19:04:12Z</time>
      </trkpt>
      <trkpt lat="45.88528" lon="4.50042">
        <ele>395.33236050374</ele>
        <time>2013-09-19T19:04:17Z</time>
      </trkpt>
      <trkpt lat="45.88526" lon="4.50031">
        <ele>395.46093611326</ele>
        <time>2013-09-19T19:04:22Z</time>
      </trkpt>
      <trkpt lat="45.88524" lon="4.50021">
        <ele>395.46093611326</ele>
        <time>2013-09-19T19:04:27Z</time>
      </trkpt>
      <trkpt lat="45.88521" lon="4.50011">
        <ele>395.74281509412</ele>
        <time>2013-09-19T19:04:32Z</time>
      </trkpt>
      <trkpt lat="45.88517" lon="4.50002">
        <ele>395.74281509412</ele>
        <time>2013-09-19T19:04:37Z</time>
      </trkpt>
      <trkpt lat="45.88512" lon="4.49992">
        <ele>396.02027649664</ele>
        <time>2013-09-19T19:04:42Z</time>
      </trkpt>
      <trkpt lat="45.88508" lon="4.49982">
        <ele>396.02027649664</ele>
        <time>2013-09-19T19:04:47Z</time>
      </trkpt>
      <trkpt lat="45.88505" lon="4.49971">
        <ele>396.21932302631</ele>
        <time>2013-09-19T19:04:52Z</time>
      </trkpt>
      <trkpt lat="45.88501" lon="4.4996">
        <ele>396.21932302631</ele>
        <time>2013-09-19T19:04:57Z</time>
      </trkpt>
      <trkpt lat="45.88499" lon="4.49949">
        <ele>396.30050587808</ele>
        <time>2013-09-19T19:05:02Z</time>
      </trkpt>
      <trkpt lat="45.88496" lon="4.49938">
        <ele>396.30050587808</ele>
        <time>2013-09-19T19:05:07Z</time>
      </trkpt>
      <trkpt lat="45.88494" lon="4.49926">
        <ele>396.14120857506</ele>
        <time>2013-09-19T19:05:12Z</time>
      </trkpt>
      <trkpt lat="45.88492" lon="4.49915">
        <ele>396.14120857506</ele>
        <time>2013-09-19T19:05:17Z</time>
      </trkpt>
      <trkpt lat="45.88491" lon="4.49904">
        <ele>395.85914410856</ele>
        <time>2013-09-19T19:05:22Z</time>
      </trkpt>
      <trkpt lat="45.88488" lon="4.49895">
        <ele>395.85914410856</ele>
        <time>2013-09-19T19:05:27Z</time>
      </trkpt>
      <trkpt lat="45.88486" lon="4.49885">
        <ele>395.65025690041</ele>
        <time>2013-09-19T19:05:32Z</time>
      </trkpt>
      <trkpt lat="45.88484" lon="4.49875">
        <ele>395.65025690041</ele>
        <time>2013-09-19T19:05:37Z</time>
      </trkpt>
      <trkpt lat="45.88483" lon="4.49868">
        <ele>395.39332288881</ele>
        <time>2013-09-19T19:05:42Z</time>
      </trkpt>
      <trkpt lat="45.88481" lon="4.4986">
        <ele>395.39332288881</ele>
        <time>2013-09-19T19:05:47Z</time>
      </trkpt>
      <trkpt lat="45.88481" lon="4.49852">
        <ele>395.50943110748</ele>
        <time>2013-09-19T19:05:52Z</time>
      </trkpt>
      <trkpt lat="45.88481" lon="4.49843">
        <ele>395.50943110748</ele>
        <time>2013-09-19T19:05:57Z</time>
      </trkpt>
      <trkpt lat="45.88482" lon="4.49833">
        <ele>395.49426036437</ele>
        <time>2013-09-19T19:06:02Z</time>
      </trkpt>
      <trkpt lat="45.88483" lon="4.49824">
        <ele>395.49426036437</ele>
        <time>2013-09-19T19:06:07Z</time>
      </trkpt>
      <trkpt lat="45.88484" lon="4.49816">
        <ele>395.42858458535</ele>
        <time>2013-09-19T19:06:12Z</time>
      </trkpt>
      <trkpt lat="45.88485" lon="4.49807">
        <ele>395.42858458535</ele>
        <time>2013-09-19T19:06:17Z</time>
      </trkpt>
      <trkpt lat="45.88486" lon="4.49799">
        <ele>395.4450855505</ele>
        <time>2013-09-19T19:06:22Z</time>
      </trkpt>
      <trkpt lat="45.88489" lon="4.4979">
        <ele>395.4450855505</ele>
        <time>2013-09-19T19:06:27Z</time>
      </trkpt>
      <trkpt lat="45.88493" lon="4.4978">
        <ele>395.52241052355</ele>
        <time>2013-09-19T19:06:32Z</time>
      </trkpt>
      <trkpt lat="45.88496" lon="4.4977">
        <ele>395.52241052355</ele>
        <time>2013-09-19T19:06:37Z</time>
      </trkpt>
      <trkpt lat="45.88501" lon="4.49761">
        <ele>395.84241342941</ele>
        <time>2013-09-19T19:06:42Z</time>
      </trkpt>
      <trkpt lat="45.88504" lon="4.49751">
        <ele>395.84241342941</ele>
        <time>2013-09-19T19:06:47Z</time>
      </trkpt>
      <trkpt lat="45.88509" lon="4.49741">
        <ele>396.58737285763</ele>
        <time>2013-09-19T19:06:52Z</time>
      </trkpt>
      <trkpt lat="45.88512" lon="4.49731">
        <ele>396.58737285763</ele>
        <time>2013-09-19T19:06:57Z</time>
      </trkpt>
      <trkpt lat="45.88514" lon="4.49721">
        <ele>397.83857390095</ele>
        <time>2013-09-19T19:07:02Z</time>
      </trkpt>
      <trkpt lat="45.88516" lon="4.49711">
        <ele>397.83857390095</ele>
        <time>2013-09-19T19:07:07Z</time>
      </trkpt>
      <trkpt lat="45.88518" lon="4.497">
        <ele>399.41057018764</ele>
        <time>2013-09-19T19:07:12Z</time>
      </trkpt>
      <trkpt lat="45.88519" lon="4.49688">
        <ele>399.41057018764</ele>
        <time>2013-09-19T19:07:17Z</time>
      </trkpt>
      <trkpt lat="45.8852" lon="4.49678">
        <ele>401.23158322406</ele>
        <time>2013-09-19T19:07:22Z</time>
      </trkpt>
      <trkpt lat="45.8852" lon="4.49666">
        <ele>401.23158322406</ele>
        <time>2013-09-19T19:07:27Z</time>
      </trkpt>
      <trkpt lat="45.88519" lon="4.49653">
        <ele>403.23448518885</ele>
        <time>2013-09-19T19:07:32Z</time>
      </trkpt>
      <trkpt lat="45.88517" lon="4.4964">
        <ele>405.19813364153</ele>
        <time>2013-09-19T19:07:37Z</time>
      </trkpt>
      <trkpt lat="45.88517" lon="4.49627">
        <ele>406.90342702486</ele>
        <time>2013-09-19T19:07:42Z</time>
      </trkpt>
      <trkpt lat="45.88518" lon="4.49614">
        <ele>406.90342702486</ele>
        <time>2013-09-19T19:07:47Z</time>
      </trkpt>
      <trkpt lat="45.88519" lon="4.49602">
        <ele>408.27788930368</ele>
        <time>2013-09-19T19:07:52Z</time>
      </trkpt>
      <trkpt lat="45.88521" lon="4.4959">
        <ele>408.27788930368</ele>
        <time>2013-09-19T19:07:57Z</time>
      </trkpt>
      <trkpt lat="45.88523" lon="4.49578">
        <ele>409.45716443088</ele>
        <time>2013-09-19T19:08:02Z</time>
      </trkpt>
      <trkpt lat="45.88524" lon="4.49567">
        <ele>409.45716443088</ele>
        <time>2013-09-19T19:08:07Z</time>
      </trkpt>
      <trkpt lat="45.88523" lon="4.49556">
        <ele>410.65406276783</ele>
        <time>2013-09-19T19:08:12Z</time>
      </trkpt>
      <trkpt lat="45.8852" lon="4.49546">
        <ele>410.65406276783</ele>
        <time>2013-09-19T19:08:17Z</time>
      </trkpt>
      <trkpt lat="45.88517" lon="4.49537">
        <ele>411.8784865081</ele>
        <time>2013-09-19T19:08:22Z</time>
      </trkpt>
      <trkpt lat="45.88512" lon="4.49528">
        <ele>411.8784865081</ele>
        <time>2013-09-19T19:08:27Z</time>
      </trkpt>
      <trkpt lat="45.88507" lon="4.49519">
        <ele>413.08200841805</ele>
        <time>2013-09-19T19:08:32Z</time>
      </trkpt>
      <trkpt lat="45.88502" lon="4.49508">
        <ele>413.08200841805</ele>
        <time>2013-09-19T19:08:37Z</time>
      </trkpt>
      <trkpt lat="45.88498" lon="4.49499">
        <ele>414.19111490212</ele>
        <time>2013-09-19T19:08:42Z</time>
      </trkpt>
      <trkpt lat="45.88494" lon="4.49491">
        <ele>414.19111490212</ele>
        <time>2013-09-19T19:08:47Z</time>
      </trkpt>
      <trkpt lat="45.8849" lon="4.49483">
        <ele>415.31101038556</ele>
        <time>2013-09-19T19:08:52Z</time>
      </trkpt>
      <trkpt lat="45.88488" lon="4.49474">
        <ele>415.31101038556</ele>
        <time>2013-09-19T19:08:57Z</time>
      </trkpt>
      <trkpt lat="45.88485" lon="4.49464">
        <ele>416.43838160634</ele>
        <time>2013-09-19T19:09:02Z</time>
      </trkpt>
      <trkpt lat="45.88482" lon="4.49455">
        <ele>416.43838160634</ele>
        <time>2013-09-19T19:09:07Z</time>
      </trkpt>
      <trkpt lat="45.88478" lon="4.49448">
        <ele>417.65672193492</ele>
        <time>2013-09-19T19:09:12Z</time>
      </trkpt>
      <trkpt lat="45.88476" lon="4.49439">
        <ele>417.65672193492</ele>
        <time>2013-09-19T19:09:17Z</time>
      </trkpt>
      <trkpt lat="45.88476" lon="4.49429">
        <ele>418.87031888729</ele>
        <time>2013-09-19T19:09:22Z</time>
      </trkpt>
      <trkpt lat="45.88474" lon="4.4942">
        <ele>418.87031888729</ele>
        <time>2013-09-19T19:09:27Z</time>
      </trkpt>
      <trkpt lat="45.88473" lon="4.49414">
        <ele>420.22119707109</ele>
        <time>2013-09-19T19:09:32Z</time>
      </trkpt>
      <trkpt lat="45.88472" lon="4.49405">
        <ele>420.22119707109</ele>
        <time>2013-09-19T19:09:37Z</time>
      </trkpt>
      <trkpt lat="45.88473" lon="4.49397">
        <ele>421.66774354918</ele>
        <time>2013-09-19T19:09:42Z</time>
      </trkpt>
      <trkpt lat="45.88474" lon="4.49389">
        <ele>421.66774354918</ele>
        <time>2013-09-19T19:09:47Z</time>
      </trkpt>
      <trkpt lat="45.88474" lon="4.49382">
        <ele>423.21448074701</ele>
        <time>2013-09-19T19:09:52Z</time>
      </trkpt>
      <trkpt lat="45.88473" lon="4.49375">
        <ele>423.21448074701</ele>
        <time>2013-09-19T19:09:57Z</time>
      </trkpt>
      <trkpt lat="45.88472" lon="4.49366">
        <ele>424.92307588916</ele>
        <time>2013-09-19T19:10:02Z</time>
      </trkpt>
      <trkpt lat="45.88471" lon="4.49357">
        <ele>424.92307588916</ele>
        <time>2013-09-19T19:10:07Z</time>
      </trkpt>
      <trkpt lat="45.88468" lon="4.49349">
        <ele>426.34593666496</ele>
        <time>2013-09-19T19:10:12Z</time>
      </trkpt>
      <trkpt lat="45.88465" lon="4.49342">
        <ele>426.34593666496</ele>
        <time>2013-09-19T19:10:17Z</time>
      </trkpt>
      <trkpt lat="45.88463" lon="4.49336">
        <ele>427.64571027559</ele>
        <time>2013-09-19T19:10:22Z</time>
      </trkpt>
      <trkpt lat="45.88462" lon="4.49328">
        <ele>427.64571027559</ele>
        <time>2013-09-19T19:10:27Z</time>
      </trkpt>
      <trkpt lat="45.88462" lon="4.4932">
        <ele>428.59886415256</ele>
        <time>2013-09-19T19:10:32Z</time>
      </trkpt>
      <trkpt lat="45.88462" lon="4.49313">
        <ele>428.59886415256</ele>
        <time>2013-09-19T19:10:37Z</time>
      </trkpt>
      <trkpt lat="45.88461" lon="4.49306">
        <ele>429.41728999856</ele>
        <time>2013-09-19T19:10:42Z</time>
      </trkpt>
      <trkpt lat="45.8846" lon="4.49299">
        <ele>429.41728999856</ele>
        <time>2013-09-19T19:10:47Z</time>
      </trkpt>
      <trkpt lat="45.8846" lon="4.49295">
        <ele>429.41728999856</ele>
        <time>2013-09-19T19:10:52Z</time>
      </trkpt>
      <trkpt lat="45.88463" lon="4.49283">
        <ele>430.1248627546</ele>
        <time>2013-09-19T19:11:02Z</time>
      </trkpt>
      <trkpt lat="45.88464" lon="4.49272">
        <ele>430.1248627546</ele>
        <time>2013-09-19T19:11:07Z</time>
      </trkpt>
      <trkpt lat="45.88467" lon="4.49257">
        <ele>431.16203553819</ele>
        <time>2013-09-19T19:11:12Z</time>
      </trkpt>
      <trkpt lat="45.88471" lon="4.49242">
        <ele>432.35962979276</ele>
        <time>2013-09-19T19:11:17Z</time>
      </trkpt>
      <trkpt lat="45.88473" lon="4.49229">
        <ele>433.38759907421</ele>
        <time>2013-09-19T19:11:22Z</time>
      </trkpt>
      <trkpt lat="45.88477" lon="4.49214">
        <ele>434.28656765327</ele>
        <time>2013-09-19T19:11:27Z</time>
      </trkpt>
      <trkpt lat="45.88481" lon="4.49203">
        <ele>434.96491567417</ele>
        <time>2013-09-19T19:11:32Z</time>
      </trkpt>
      <trkpt lat="45.88485" lon="4.49191">
        <ele>435.43932294163</ele>
        <time>2013-09-19T19:11:37Z</time>
      </trkpt>
      <trkpt lat="45.88489" lon="4.49177">
        <ele>435.75470395804</ele>
        <time>2013-09-19T19:11:42Z</time>
      </trkpt>
      <trkpt lat="45.88493" lon="4.49166">
        <ele>435.75470395804</ele>
        <time>2013-09-19T19:11:47Z</time>
      </trkpt>
      <trkpt lat="45.88497" lon="4.49157">
        <ele>436.1549334975</ele>
        <time>2013-09-19T19:11:52Z</time>
      </trkpt>
      <trkpt lat="45.88501" lon="4.49147">
        <ele>436.1549334975</ele>
        <time>2013-09-19T19:11:57Z</time>
      </trkpt>
      <trkpt lat="45.88506" lon="4.49137">
        <ele>436.63520536067</ele>
        <time>2013-09-19T19:12:02Z</time>
      </trkpt>
      <trkpt lat="45.88509" lon="4.49123">
        <ele>437.04677245919</ele>
        <time>2013-09-19T19:12:07Z</time>
      </trkpt>
      <trkpt lat="45.88512" lon="4.49113">
        <ele>437.04677245919</ele>
        <time>2013-09-19T19:12:12Z</time>
      </trkpt>
      <trkpt lat="45.88517" lon="4.49103">
        <ele>437.43938602048</ele>
        <time>2013-09-19T19:12:17Z</time>
      </trkpt>
      <trkpt lat="45.8852" lon="4.49093">
        <ele>437.43938602048</ele>
        <time>2013-09-19T19:12:22Z</time>
      </trkpt>
      <trkpt lat="45.88525" lon="4.49085">
        <ele>437.91686755166</ele>
        <time>2013-09-19T19:12:27Z</time>
      </trkpt>
      <trkpt lat="45.88529" lon="4.49075">
        <ele>437.91686755166</ele>
        <time>2013-09-19T19:12:32Z</time>
      </trkpt>
      <trkpt lat="45.88534" lon="4.49065">
        <ele>438.57519510417</ele>
        <time>2013-09-19T19:12:37Z</time>
      </trkpt>
      <trkpt lat="45.88537" lon="4.49056">
        <ele>438.57519510417</ele>
        <time>2013-09-19T19:12:42Z</time>
      </trkpt>
      <trkpt lat="45.8854" lon="4.49048">
        <ele>439.4451607391</ele>
        <time>2013-09-19T19:12:47Z</time>
      </trkpt>
      <trkpt lat="45.88544" lon="4.49038">
        <ele>439.4451607391</ele>
        <time>2013-09-19T19:12:52Z</time>
      </trkpt>
      <trkpt lat="45.88548" lon="4.49031">
        <ele>440.3817799871</ele>
        <time>2013-09-19T19:12:57Z</time>
      </trkpt>
      <trkpt lat="45.88551" lon="4.49024">
        <ele>440.3817799871</ele>
        <time>2013-09-19T19:13:02Z</time>
      </trkpt>
      <trkpt lat="45.88555" lon="4.49017">
        <ele>441.4667089269</ele>
        <time>2013-09-19T19:13:07Z</time>
      </trkpt>
      <trkpt lat="45.88556" lon="4.49008">
        <ele>441.4667089269</ele>
        <time>2013-09-19T19:13:12Z</time>
      </trkpt>
      <trkpt lat="45.88557" lon="4.48999">
        <ele>442.63108735106</ele>
        <time>2013-09-19T19:13:17Z</time>
      </trkpt>
      <trkpt lat="45.88557" lon="4.48989">
        <ele>442.63108735106</ele>
        <time>2013-09-19T19:13:22Z</time>
      </trkpt>
      <trkpt lat="45.88557" lon="4.48978">
        <ele>443.92618902435</ele>
        <time>2013-09-19T19:13:27Z</time>
      </trkpt>
      <trkpt lat="45.88554" lon="4.48966">
        <ele>443.92618902435</ele>
        <time>2013-09-19T19:13:32Z</time>
      </trkpt>
      <trkpt lat="45.88552" lon="4.48956">
        <ele>445.09653109791</ele>
        <time>2013-09-19T19:13:37Z</time>
      </trkpt>
      <trkpt lat="45.88553" lon="4.48946">
        <ele>445.09653109791</ele>
        <time>2013-09-19T19:13:42Z</time>
      </trkpt>
      <trkpt lat="45.88553" lon="4.48934">
        <ele>446.07869249981</ele>
        <time>2013-09-19T19:13:47Z</time>
      </trkpt>
      <trkpt lat="45.88555" lon="4.48926">
        <ele>446.07869249981</ele>
        <time>2013-09-19T19:13:52Z</time>
      </trkpt>
      <trkpt lat="45.88556" lon="4.48919">
        <ele>447.2035505483</ele>
        <time>2013-09-19T19:13:57Z</time>
      </trkpt>
      <trkpt lat="45.88552" lon="4.48906">
        <ele>448.31613224009</ele>
        <time>2013-09-19T19:14:02Z</time>
      </trkpt>
      <trkpt lat="45.8855" lon="4.48894">
        <ele>448.31613224009</ele>
        <time>2013-09-19T19:14:07Z</time>
      </trkpt>
      <trkpt lat="45.8855" lon="4.48878">
        <ele>449.31612815775</ele>
        <time>2013-09-19T19:14:12Z</time>
      </trkpt>
      <trkpt lat="45.88548" lon="4.48865">
        <ele>450.22621336669</ele>
        <time>2013-09-19T19:14:17Z</time>
      </trkpt>
      <trkpt lat="45.88545" lon="4.48854">
        <ele>450.22621336669</ele>
        <time>2013-09-19T19:14:22Z</time>
      </trkpt>
      <trkpt lat="45.88539" lon="4.48843">
        <ele>450.96678168557</ele>
        <time>2013-09-19T19:14:27Z</time>
      </trkpt>
      <trkpt lat="45.88532" lon="4.48833">
        <ele>451.36368032079</ele>
        <time>2013-09-19T19:14:32Z</time>
      </trkpt>
      <trkpt lat="45.88526" lon="4.48822">
        <ele>451.51591804543</ele>
        <time>2013-09-19T19:14:37Z</time>
      </trkpt>
      <trkpt lat="45.88522" lon="4.48813">
        <ele>451.51591804543</ele>
        <time>2013-09-19T19:14:42Z</time>
      </trkpt>
      <trkpt lat="45.88519" lon="4.48805">
        <ele>451.42944908589</ele>
        <time>2013-09-19T19:14:47Z</time>
      </trkpt>
      <trkpt lat="45.88517" lon="4.48796">
        <ele>451.42944908589</ele>
        <time>2013-09-19T19:14:52Z</time>
      </trkpt>
      <trkpt lat="45.88517" lon="4.48787">
        <ele>451.05280727214</ele>
        <time>2013-09-19T19:14:57Z</time>
      </trkpt>
      <trkpt lat="45.88518" lon="4.48778">
        <ele>451.05280727214</ele>
        <time>2013-09-19T19:15:02Z</time>
      </trkpt>
      <trkpt lat="45.88519" lon="4.48767">
        <ele>450.45439311881</ele>
        <time>2013-09-19T19:15:07Z</time>
      </trkpt>
      <trkpt lat="45.88523" lon="4.48755">
        <ele>450.45439311881</ele>
        <time>2013-09-19T19:15:12Z</time>
      </trkpt>
      <trkpt lat="45.88526" lon="4.48745">
        <ele>449.6837665066</ele>
        <time>2013-09-19T19:15:17Z</time>
      </trkpt>
      <trkpt lat="45.8853" lon="4.48737">
        <ele>449.6837665066</ele>
        <time>2013-09-19T19:15:22Z</time>
      </trkpt>
      <trkpt lat="45.88534" lon="4.48731">
        <ele>448.90258091575</ele>
        <time>2013-09-19T19:15:27Z</time>
      </trkpt>
      <trkpt lat="45.88538" lon="4.48723">
        <ele>448.90258091575</ele>
        <time>2013-09-19T19:15:32Z</time>
      </trkpt>
      <trkpt lat="45.88541" lon="4.48716">
        <ele>448.43352954479</ele>
        <time>2013-09-19T19:15:37Z</time>
      </trkpt>
      <trkpt lat="45.88545" lon="4.48708">
        <ele>448.43352954479</ele>
        <time>2013-09-19T19:15:42Z</time>
      </trkpt>
      <trkpt lat="45.88549" lon="4.487">
        <ele>448.19997832367</ele>
        <time>2013-09-19T19:15:47Z</time>
      </trkpt>
      <trkpt lat="45.88554" lon="4.48694">
        <ele>448.19997832367</ele>
        <time>2013-09-19T19:15:52Z</time>
      </trkpt>
      <trkpt lat="45.88557" lon="4.48687">
        <ele>448.18784130238</ele>
        <time>2013-09-19T19:15:57Z</time>
      </trkpt>
      <trkpt lat="45.8856" lon="4.48678">
        <ele>448.18784130238</ele>
        <time>2013-09-19T19:16:02Z</time>
      </trkpt>
      <trkpt lat="45.88559" lon="4.48666">
        <ele>448.39778716866</ele>
        <time>2013-09-19T19:16:07Z</time>
      </trkpt>
      <trkpt lat="45.88557" lon="4.48655">
        <ele>448.39778716866</ele>
        <time>2013-09-19T19:16:12Z</time>
      </trkpt>
      <trkpt lat="45.88555" lon="4.48644">
        <ele>448.75768439899</ele>
        <time>2013-09-19T19:16:17Z</time>
      </trkpt>
      <trkpt lat="45.88553" lon="4.48634">
        <ele>448.75768439899</ele>
        <time>2013-09-19T19:16:22Z</time>
      </trkpt>
      <trkpt lat="45.88553" lon="4.48623">
        <ele>449.0705063373</ele>
        <time>2013-09-19T19:16:27Z</time>
      </trkpt>
      <trkpt lat="45.88552" lon="4.4861">
        <ele>449.0705063373</ele>
        <time>2013-09-19T19:16:32Z</time>
      </trkpt>
      <trkpt lat="45.88549" lon="4.48598">
        <ele>449.24022573209</ele>
        <time>2013-09-19T19:16:37Z</time>
      </trkpt>
      <trkpt lat="45.88546" lon="4.48587">
        <ele>449.24022573209</ele>
        <time>2013-09-19T19:16:42Z</time>
      </trkpt>
      <trkpt lat="45.88543" lon="4.48576">
        <ele>449.40877678097</ele>
        <time>2013-09-19T19:16:47Z</time>
      </trkpt>
      <trkpt lat="45.88539" lon="4.48566">
        <ele>449.40877678097</ele>
        <time>2013-09-19T19:16:52Z</time>
      </trkpt>
      <trkpt lat="45.88534" lon="4.48556">
        <ele>449.30408766415</ele>
        <time>2013-09-19T19:16:57Z</time>
      </trkpt>
      <trkpt lat="45.88529" lon="4.48546">
        <ele>449.30408766415</ele>
        <time>2013-09-19T19:17:02Z</time>
      </trkpt>
      <trkpt lat="45.88526" lon="4.48535">
        <ele>448.91975600252</ele>
        <time>2013-09-19T19:17:07Z</time>
      </trkpt>
      <trkpt lat="45.88523" lon="4.48525">
        <ele>448.91975600252</ele>
        <time>2013-09-19T19:17:12Z</time>
      </trkpt>
      <trkpt lat="45.8852" lon="4.48514">
        <ele>448.50996043374</ele>
        <time>2013-09-19T19:17:17Z</time>
      </trkpt>
      <trkpt lat="45.88516" lon="4.48503">
        <ele>448.50996043374</ele>
        <time>2013-09-19T19:17:22Z</time>
      </trkpt>
      <trkpt lat="45.88514" lon="4.48492">
        <ele>448.15168075272</ele>
        <time>2013-09-19T19:17:27Z</time>
      </trkpt>
      <trkpt lat="45.8851" lon="4.48483">
        <ele>448.15168075272</ele>
        <time>2013-09-19T19:17:32Z</time>
      </trkpt>
      <trkpt lat="45.88506" lon="4.48474">
        <ele>447.78631829641</ele>
        <time>2013-09-19T19:17:37Z</time>
      </trkpt>
      <trkpt lat="45.88503" lon="4.48464">
        <ele>447.78631829641</ele>
        <time>2013-09-19T19:17:42Z</time>
      </trkpt>
      <trkpt lat="45.88499" lon="4.48454">
        <ele>447.43157279547</ele>
        <time>2013-09-19T19:17:47Z</time>
      </trkpt>
      <trkpt lat="45.88496" lon="4.48444">
        <ele>447.43157279547</ele>
        <time>2013-09-19T19:17:52Z</time>
      </trkpt>
      <trkpt lat="45.88493" lon="4.48432">
        <ele>446.9884410535</ele>
        <time>2013-09-19T19:17:57Z</time>
      </trkpt>
      <trkpt lat="45.88489" lon="4.48424">
        <ele>446.9884410535</ele>
        <time>2013-09-19T19:18:02Z</time>
      </trkpt>
      <trkpt lat="45.88485" lon="4.48416">
        <ele>446.82651083769</ele>
        <time>2013-09-19T19:18:07Z</time>
      </trkpt>
      <trkpt lat="45.88481" lon="4.48408">
        <ele>446.82651083769</ele>
        <time>2013-09-19T19:18:12Z</time>
      </trkpt>
      <trkpt lat="45.88477" lon="4.484">
        <ele>446.92706760421</ele>
        <time>2013-09-19T19:18:17Z</time>
      </trkpt>
      <trkpt lat="45.88473" lon="4.48392">
        <ele>446.92706760421</ele>
        <time>2013-09-19T19:18:22Z</time>
      </trkpt>
      <trkpt lat="45.88467" lon="4.48385">
        <ele>447.11342789379</ele>
        <time>2013-09-19T19:18:27Z</time>
      </trkpt>
      <trkpt lat="45.88463" lon="4.48378">
        <ele>447.11342789379</ele>
        <time>2013-09-19T19:18:32Z</time>
      </trkpt>
      <trkpt lat="45.88459" lon="4.48372">
        <ele>447.63948663625</ele>
        <time>2013-09-19T19:18:37Z</time>
      </trkpt>
      <trkpt lat="45.88454" lon="4.48364">
        <ele>447.63948663625</ele>
        <time>2013-09-19T19:18:42Z</time>
      </trkpt>
      <trkpt lat="45.88451" lon="4.48356">
        <ele>448.32153463736</ele>
        <time>2013-09-19T19:18:47Z</time>
      </trkpt>
      <trkpt lat="45.88448" lon="4.48348">
        <ele>448.32153463736</ele>
        <time>2013-09-19T19:18:52Z</time>
      </trkpt>
      <trkpt lat="45.88445" lon="4.48338">
        <ele>449.03208172533</ele>
        <time>2013-09-19T19:18:57Z</time>
      </trkpt>
      <trkpt lat="45.88442" lon="4.48327">
        <ele>449.03208172533</ele>
        <time>2013-09-19T19:19:02Z</time>
      </trkpt>
      <trkpt lat="45.88436" lon="4.48315">
        <ele>449.53756877491</ele>
        <time>2013-09-19T19:19:07Z</time>
      </trkpt>
      <trkpt lat="45.8843" lon="4.48305">
        <ele>449.53756877491</ele>
        <time>2013-09-19T19:19:12Z</time>
      </trkpt>
      <trkpt lat="45.88427" lon="4.48294">
        <ele>449.8094544526</ele>
        <time>2013-09-19T19:19:17Z</time>
      </trkpt>
      <trkpt lat="45.88423" lon="4.48281">
        <ele>449.83630653074</ele>
        <time>2013-09-19T19:19:22Z</time>
      </trkpt>
      <trkpt lat="45.8842" lon="4.48271">
        <ele>449.83630653074</ele>
        <time>2013-09-19T19:19:27Z</time>
      </trkpt>
      <trkpt lat="45.88417" lon="4.48261">
        <ele>449.82433642532</ele>
        <time>2013-09-19T19:19:32Z</time>
      </trkpt>
      <trkpt lat="45.88414" lon="4.4825">
        <ele>449.82433642532</ele>
        <time>2013-09-19T19:19:37Z</time>
      </trkpt>
      <trkpt lat="45.88412" lon="4.48237">
        <ele>449.74850135862</ele>
        <time>2013-09-19T19:19:42Z</time>
      </trkpt>
      <trkpt lat="45.88411" lon="4.48225">
        <ele>449.74850135862</ele>
        <time>2013-09-19T19:19:47Z</time>
      </trkpt>
      <trkpt lat="45.88414" lon="4.48215">
        <ele>449.71543041613</ele>
        <time>2013-09-19T19:19:52Z</time>
      </trkpt>
      <trkpt lat="45.88418" lon="4.48208">
        <ele>449.71543041613</ele>
        <time>2013-09-19T19:19:57Z</time>
      </trkpt>
      <trkpt lat="45.88422" lon="4.48201">
        <ele>449.86698727726</ele>
        <time>2013-09-19T19:20:02Z</time>
      </trkpt>
      <trkpt lat="45.8843" lon="4.48196">
        <ele>449.86698727726</ele>
        <time>2013-09-19T19:20:07Z</time>
      </trkpt>
      <trkpt lat="45.88437" lon="4.48191">
        <ele>449.55585078481</ele>
        <time>2013-09-19T19:20:12Z</time>
      </trkpt>
      <trkpt lat="45.88443" lon="4.48187">
        <ele>449.55585078481</ele>
        <time>2013-09-19T19:20:17Z</time>
      </trkpt>
      <trkpt lat="45.88449" lon="4.48184">
        <ele>449.48050549223</ele>
        <time>2013-09-19T19:20:22Z</time>
      </trkpt>
      <trkpt lat="45.88457" lon="4.48181">
        <ele>449.48050549223</ele>
        <time>2013-09-19T19:20:27Z</time>
      </trkpt>
      <trkpt lat="45.88465" lon="4.4818">
        <ele>449.46598670377</ele>
        <time>2013-09-19T19:20:32Z</time>
      </trkpt>
      <trkpt lat="45.88472" lon="4.48176">
        <ele>449.46598670377</ele>
        <time>2013-09-19T19:20:37Z</time>
      </trkpt>
      <trkpt lat="45.8848" lon="4.48171">
        <ele>449.56613568107</ele>
        <time>2013-09-19T19:20:42Z</time>
      </trkpt>
      <trkpt lat="45.88486" lon="4.48166">
        <ele>449.56613568107</ele>
        <time>2013-09-19T19:20:47Z</time>
      </trkpt>
      <trkpt lat="45.88493" lon="4.48161">
        <ele>449.80165299582</ele>
        <time>2013-09-19T19:20:52Z</time>
      </trkpt>
      <trkpt lat="45.88499" lon="4.48157">
        <ele>449.80165299582</ele>
        <time>2013-09-19T19:20:57Z</time>
      </trkpt>
      <trkpt lat="45.88506" lon="4.48153">
        <ele>450.23453309205</ele>
        <time>2013-09-19T19:21:02Z</time>
      </trkpt>
      <trkpt lat="45.8851" lon="4.48146">
        <ele>450.23453309205</ele>
        <time>2013-09-19T19:21:07Z</time>
      </trkpt>
      <trkpt lat="45.88509" lon="4.48138">
        <ele>451.00809422462</ele>
        <time>2013-09-19T19:21:12Z</time>
      </trkpt>
      <trkpt lat="45.88506" lon="4.4813">
        <ele>451.00809422462</ele>
        <time>2013-09-19T19:21:17Z</time>
      </trkpt>
      <trkpt lat="45.88505" lon="4.48122">
        <ele>451.95150757619</ele>
        <time>2013-09-19T19:21:22Z</time>
      </trkpt>
      <trkpt lat="45.88503" lon="4.48118">
        <ele>451.95150757619</ele>
        <time>2013-09-19T19:21:27Z</time>
      </trkpt>
      <trkpt lat="45.88501" lon="4.48109">
        <ele>452.93481580108</ele>
        <time>2013-09-19T19:21:37Z</time>
      </trkpt>
    </trkseg>
  </trk>
</gpx>